sensor_id;sensor_type;location;lat;lon;timestamp;P1;durP1;ratioP1;P2;durP2;ratioP2
51738;SDS011;37815;52.692;6.226;2023-05-16T00:00:52;4.13;;;1.10;;
51738;SDS011;37815;52.692;6.226;2023-05-16T00:05:53;2.47;;;1.20;;
51738;SDS011;37815;52.692;6.226;2023-05-16T00:10:54;4.47;;;1.45;;
51738;SDS011;37815;52.692;6.226;2023-05-16T00:15:55;4.05;;;1.60;;
51738;SDS011;37815;52.692;6.226;2023-05-16T00:20:56;2.28;;;1.15;;
51738;SDS011;37815;52.692;6.226;2023-05-16T00:25:57;4.93;;;1.55;;
51738;SDS011;37815;52.692;6.226;2023-05-16T00:30:58;4.53;;;1.20;;
51738;SDS011;37815;52.692;6.226;2023-05-16T00:35:58;4.10;;;0.88;;
51738;SDS011;37815;52.692;6.226;2023-05-16T00:40:59;4.82;;;0.95;;
51738;SDS011;37815;52.692;6.226;2023-05-16T00:46:00;3.03;;;1.10;;
51738;SDS011;37815;52.692;6.226;2023-05-16T00:51:00;3.97;;;1.25;;
51738;SDS011;37815;52.692;6.226;2023-05-16T00:56:01;4.07;;;0.90;;
51738;SDS011;37815;52.692;6.226;2023-05-16T01:01:02;3.10;;;0.88;;
51738;SDS011;37815;52.692;6.226;2023-05-16T01:06:03;2.03;;;0.90;;
51738;SDS011;37815;52.692;6.226;2023-05-16T01:11:07;3.10;;;0.75;;
51738;SDS011;37815;52.692;6.226;2023-05-16T01:16:26;3.55;;;1.02;;
51738;SDS011;37815;52.692;6.226;2023-05-16T01:21:48;5.40;;;1.60;;
51738;SDS011;37815;52.692;6.226;2023-05-16T01:27:05;3.03;;;0.90;;
51738;SDS011;37815;52.692;6.226;2023-05-16T01:32:07;4.05;;;1.23;;
51738;SDS011;37815;52.692;6.226;2023-05-16T01:37:11;2.83;;;0.88;;
51738;SDS011;37815;52.692;6.226;2023-05-16T01:42:29;4.45;;;0.90;;
51738;SDS011;37815;52.692;6.226;2023-05-16T01:47:32;3.15;;;1.00;;
51738;SDS011;37815;52.692;6.226;2023-05-16T01:52:39;4.57;;;0.95;;
51738;SDS011;37815;52.692;6.226;2023-05-16T01:57:47;3.42;;;0.90;;
51738;SDS011;37815;52.692;6.226;2023-05-16T02:02:48;4.20;;;1.15;;
51738;SDS011;37815;52.692;6.226;2023-05-16T02:07:49;4.47;;;1.10;;
51738;SDS011;37815;52.692;6.226;2023-05-16T02:12:50;2.72;;;0.88;;
51738;SDS011;37815;52.692;6.226;2023-05-16T02:17:50;3.95;;;0.93;;
51738;SDS011;37815;52.692;6.226;2023-05-16T02:22:51;4.28;;;1.38;;
51738;SDS011;37815;52.692;6.226;2023-05-16T02:27:52;2.95;;;0.90;;
51738;SDS011;37815;52.692;6.226;2023-05-16T02:32:52;3.83;;;0.82;;
51738;SDS011;37815;52.692;6.226;2023-05-16T02:37:53;4.30;;;0.77;;
51738;SDS011;37815;52.692;6.226;2023-05-16T02:42:54;2.83;;;0.85;;
51738;SDS011;37815;52.692;6.226;2023-05-16T02:47:55;5.53;;;1.40;;
51738;SDS011;37815;52.692;6.226;2023-05-16T02:52:56;7.18;;;1.15;;
51738;SDS011;37815;52.692;6.226;2023-05-16T02:57:58;1.65;;;0.80;;
51738;SDS011;37815;52.692;6.226;2023-05-16T03:02:59;2.67;;;0.90;;
51738;SDS011;37815;52.692;6.226;2023-05-16T03:08:00;3.08;;;0.80;;
51738;SDS011;37815;52.692;6.226;2023-05-16T03:13:00;5.35;;;1.10;;
51738;SDS011;37815;52.692;6.226;2023-05-16T03:18:01;2.38;;;1.02;;
51738;SDS011;37815;52.692;6.226;2023-05-16T03:23:02;5.20;;;1.00;;
51738;SDS011;37815;52.692;6.226;2023-05-16T03:28:05;4.90;;;1.10;;
51738;SDS011;37815;52.692;6.226;2023-05-16T03:33:06;5.20;;;1.00;;
51738;SDS011;37815;52.692;6.226;2023-05-16T03:38:07;6.25;;;0.80;;
51738;SDS011;37815;52.692;6.226;2023-05-16T03:43:08;3.28;;;0.73;;
51738;SDS011;37815;52.692;6.226;2023-05-16T03:48:08;2.55;;;0.90;;
51738;SDS011;37815;52.692;6.226;2023-05-16T03:53:09;1.85;;;0.60;;
51738;SDS011;37815;52.692;6.226;2023-05-16T03:58:11;7.40;;;0.95;;
51738;SDS011;37815;52.692;6.226;2023-05-16T04:03:11;2.42;;;0.75;;
51738;SDS011;37815;52.692;6.226;2023-05-16T04:08:12;3.55;;;0.93;;
51738;SDS011;37815;52.692;6.226;2023-05-16T04:13:13;2.83;;;1.00;;
51738;SDS011;37815;52.692;6.226;2023-05-16T04:18:14;2.95;;;0.77;;
51738;SDS011;37815;52.692;6.226;2023-05-16T04:23:14;2.00;;;0.82;;
51738;SDS011;37815;52.692;6.226;2023-05-16T04:28:15;5.20;;;1.63;;
51738;SDS011;37815;52.692;6.226;2023-05-16T04:33:17;3.58;;;0.77;;
51738;SDS011;37815;52.692;6.226;2023-05-16T04:38:17;3.40;;;0.90;;
51738;SDS011;37815;52.692;6.226;2023-05-16T04:43:18;3.40;;;0.70;;
51738;SDS011;37815;52.692;6.226;2023-05-16T04:48:19;4.22;;;0.80;;
51738;SDS011;37815;52.692;6.226;2023-05-16T04:53:19;2.45;;;0.70;;
51738;SDS011;37815;52.692;6.226;2023-05-16T04:58:20;4.60;;;0.80;;
51738;SDS011;37815;52.692;6.226;2023-05-16T05:03:23;1.80;;;0.82;;
51738;SDS011;37815;52.692;6.226;2023-05-16T05:08:23;4.90;;;0.82;;
51738;SDS011;37815;52.692;6.226;2023-05-16T05:13:25;4.95;;;0.80;;
51738;SDS011;37815;52.692;6.226;2023-05-16T05:18:25;4.10;;;1.27;;
51738;SDS011;37815;52.692;6.226;2023-05-16T05:23:26;3.92;;;0.85;;
51738;SDS011;37815;52.692;6.226;2023-05-16T05:28:26;2.30;;;1.13;;
51738;SDS011;37815;52.692;6.226;2023-05-16T05:33:27;6.07;;;1.00;;
51738;SDS011;37815;52.692;6.226;2023-05-16T05:38:28;2.08;;;0.80;;
51738;SDS011;37815;52.692;6.226;2023-05-16T05:43:29;1.73;;;0.80;;
51738;SDS011;37815;52.692;6.226;2023-05-16T05:48:29;3.28;;;0.70;;
51738;SDS011;37815;52.692;6.226;2023-05-16T05:53:31;5.75;;;0.90;;
51738;SDS011;37815;52.692;6.226;2023-05-16T05:58:32;4.05;;;0.65;;
51738;SDS011;37815;52.692;6.226;2023-05-16T06:03:32;1.88;;;0.70;;
51738;SDS011;37815;52.692;6.226;2023-05-16T06:08:33;6.55;;;1.10;;
51738;SDS011;37815;52.692;6.226;2023-05-16T06:13:33;1.42;;;0.60;;
51738;SDS011;37815;52.692;6.226;2023-05-16T06:18:34;1.58;;;0.63;;
51738;SDS011;37815;52.692;6.226;2023-05-16T06:23:35;3.97;;;1.02;;
51738;SDS011;37815;52.692;6.226;2023-05-16T06:28:36;3.25;;;0.93;;
51738;SDS011;37815;52.692;6.226;2023-05-16T06:33:36;4.47;;;0.80;;
51738;SDS011;37815;52.692;6.226;2023-05-16T06:38:37;3.35;;;1.10;;
51738;SDS011;37815;52.692;6.226;2023-05-16T06:43:38;1.67;;;0.90;;
51738;SDS011;37815;52.692;6.226;2023-05-16T06:48:39;2.88;;;0.77;;
51738;SDS011;37815;52.692;6.226;2023-05-16T06:53:40;1.30;;;0.50;;
51738;SDS011;37815;52.692;6.226;2023-05-16T06:58:41;2.47;;;0.63;;
51738;SDS011;37815;52.692;6.226;2023-05-16T07:03:41;1.92;;;0.73;;
51738;SDS011;37815;52.692;6.226;2023-05-16T07:08:42;2.85;;;0.50;;
51738;SDS011;37815;52.692;6.226;2023-05-16T07:13:42;2.85;;;0.50;;
51738;SDS011;37815;52.692;6.226;2023-05-16T07:18:43;1.48;;;0.50;;
51738;SDS011;37815;52.692;6.226;2023-05-16T07:23:43;1.95;;;0.60;;
51738;SDS011;37815;52.692;6.226;2023-05-16T07:28:44;1.17;;;0.60;;
51738;SDS011;37815;52.692;6.226;2023-05-16T07:33:45;3.58;;;0.60;;
51738;SDS011;37815;52.692;6.226;2023-05-16T07:38:48;1.05;;;0.40;;
51738;SDS011;37815;52.692;6.226;2023-05-16T07:43:48;2.75;;;0.40;;
51738;SDS011;37815;52.692;6.226;2023-05-16T07:48:49;1.60;;;0.60;;
51738;SDS011;37815;52.692;6.226;2023-05-16T07:53:50;1.42;;;0.47;;
51738;SDS011;37815;52.692;6.226;2023-05-16T07:58:51;2.25;;;0.50;;
51738;SDS011;37815;52.692;6.226;2023-05-16T08:03:52;1.67;;;0.68;;
51738;SDS011;37815;52.692;6.226;2023-05-16T08:08:59;1.48;;;0.35;;
51738;SDS011;37815;52.692;6.226;2023-05-16T08:14:00;1.58;;;0.40;;
51738;SDS011;37815;52.692;6.226;2023-05-16T08:19:02;0.82;;;0.50;;
51738;SDS011;37815;52.692;6.226;2023-05-16T08:24:02;3.28;;;0.85;;
51738;SDS011;37815;52.692;6.226;2023-05-16T08:29:04;1.30;;;0.70;;
51738;SDS011;37815;52.692;6.226;2023-05-16T08:34:05;2.45;;;0.70;;
51738;SDS011;37815;52.692;6.226;2023-05-16T08:39:05;2.70;;;0.50;;
51738;SDS011;37815;52.692;6.226;2023-05-16T08:44:06;0.90;;;0.60;;
51738;SDS011;37815;52.692;6.226;2023-05-16T08:49:09;1.63;;;0.80;;
51738;SDS011;37815;52.692;6.226;2023-05-16T08:54:11;4.90;;;0.73;;
51738;SDS011;37815;52.692;6.226;2023-05-16T08:59:13;1.15;;;0.40;;
51738;SDS011;37815;52.692;6.226;2023-05-16T09:04:14;1.40;;;0.52;;
51738;SDS011;37815;52.692;6.226;2023-05-16T09:09:15;1.30;;;0.50;;
51738;SDS011;37815;52.692;6.226;2023-05-16T09:14:15;2.47;;;0.40;;
51738;SDS011;37815;52.692;6.226;2023-05-16T09:19:16;1.60;;;0.50;;
51738;SDS011;37815;52.692;6.226;2023-05-16T09:24:17;0.95;;;0.40;;
51738;SDS011;37815;52.692;6.226;2023-05-16T09:29:25;2.30;;;0.30;;
51738;SDS011;37815;52.692;6.226;2023-05-16T09:34:26;1.50;;;0.43;;
51738;SDS011;37815;52.692;6.226;2023-05-16T09:39:26;0.77;;;0.43;;
51738;SDS011;37815;52.692;6.226;2023-05-16T09:44:27;0.52;;;0.40;;
51738;SDS011;37815;52.692;6.226;2023-05-16T09:49:28;1.13;;;0.50;;
51738;SDS011;37815;52.692;6.226;2023-05-16T09:54:30;0.77;;;0.40;;
51738;SDS011;37815;52.692;6.226;2023-05-16T09:59:38;2.13;;;0.40;;
51738;SDS011;37815;52.692;6.226;2023-05-16T10:04:39;3.22;;;0.57;;
51738;SDS011;37815;52.692;6.226;2023-05-16T10:09:40;2.33;;;0.50;;
51738;SDS011;37815;52.692;6.226;2023-05-16T10:14:42;1.15;;;0.52;;
51738;SDS011;37815;52.692;6.226;2023-05-16T10:19:45;0.88;;;0.57;;
51738;SDS011;37815;52.692;6.226;2023-05-16T10:24:51;1.60;;;0.32;;
51738;SDS011;37815;52.692;6.226;2023-05-16T10:30:12;2.42;;;0.88;;
51738;SDS011;37815;52.692;6.226;2023-05-16T10:35:14;2.13;;;0.43;;
51738;SDS011;37815;52.692;6.226;2023-05-16T10:40:15;1.77;;;0.47;;
51738;SDS011;37815;52.692;6.226;2023-05-16T10:45:18;4.60;;;1.15;;
51738;SDS011;37815;52.692;6.226;2023-05-16T10:55:35;3.33;;;0.50;;
51738;SDS011;37815;52.692;6.226;2023-05-16T11:00:38;0.95;;;0.47;;
51738;SDS011;37815;52.692;6.226;2023-05-16T11:05:39;1.95;;;0.52;;
51738;SDS011;37815;52.692;6.226;2023-05-16T11:10:39;1.67;;;0.55;;
51738;SDS011;37815;52.692;6.226;2023-05-16T11:15:40;1.77;;;0.32;;
51738;SDS011;37815;52.692;6.226;2023-05-16T11:20:41;2.88;;;0.60;;
51738;SDS011;37815;52.692;6.226;2023-05-16T11:25:43;1.38;;;0.52;;
51738;SDS011;37815;52.692;6.226;2023-05-16T11:30:46;1.77;;;0.80;;
51738;SDS011;37815;52.692;6.226;2023-05-16T11:36:07;2.15;;;0.50;;
51738;SDS011;37815;52.692;6.226;2023-05-16T11:41:08;2.13;;;0.50;;
51738;SDS011;37815;52.692;6.226;2023-05-16T11:46:10;2.58;;;0.47;;
51738;SDS011;37815;52.692;6.226;2023-05-16T11:51:16;1.85;;;0.47;;
51738;SDS011;37815;52.692;6.226;2023-05-16T11:56:19;1.05;;;0.30;;
51738;SDS011;37815;52.692;6.226;2023-05-16T12:01:21;2.15;;;0.50;;
51738;SDS011;37815;52.692;6.226;2023-05-16T12:06:22;3.55;;;0.55;;
51738;SDS011;37815;52.692;6.226;2023-05-16T12:11:22;1.02;;;0.38;;
51738;SDS011;37815;52.692;6.226;2023-05-16T12:16:24;1.35;;;0.73;;
51738;SDS011;37815;52.692;6.226;2023-05-16T12:21:24;3.33;;;0.68;;
51738;SDS011;37815;52.692;6.226;2023-05-16T12:26:29;2.42;;;0.70;;
51738;SDS011;37815;52.692;6.226;2023-05-16T12:31:34;1.20;;;0.60;;
51738;SDS011;37815;52.692;6.226;2023-05-16T12:36:36;0.98;;;0.35;;
51738;SDS011;37815;52.692;6.226;2023-05-16T12:41:38;1.52;;;0.50;;
51738;SDS011;37815;52.692;6.226;2023-05-16T12:46:44;0.75;;;0.43;;
51738;SDS011;37815;52.692;6.226;2023-05-16T12:51:48;1.15;;;0.68;;
51738;SDS011;37815;52.692;6.226;2023-05-16T12:56:52;1.13;;;0.47;;
51738;SDS011;37815;52.692;6.226;2023-05-16T13:01:52;1.17;;;0.68;;
51738;SDS011;37815;52.692;6.226;2023-05-16T13:06:53;0.68;;;0.52;;
51738;SDS011;37815;52.692;6.226;2023-05-16T13:11:53;0.80;;;0.50;;
51738;SDS011;37815;52.692;6.226;2023-05-16T13:16:54;1.90;;;0.50;;
51738;SDS011;37815;52.692;6.226;2023-05-16T13:21:55;1.83;;;0.60;;
51738;SDS011;37815;52.692;6.226;2023-05-16T13:26:56;1.50;;;0.60;;
51738;SDS011;37815;52.692;6.226;2023-05-16T13:31:57;2.95;;;0.80;;
51738;SDS011;37815;52.692;6.226;2023-05-16T13:36:57;2.17;;;0.80;;
51738;SDS011;37815;52.692;6.226;2023-05-16T13:41:58;0.80;;;0.57;;
51738;SDS011;37815;52.692;6.226;2023-05-16T13:46:59;2.55;;;0.70;;
51738;SDS011;37815;52.692;6.226;2023-05-16T13:52:00;1.80;;;0.70;;
51738;SDS011;37815;52.692;6.226;2023-05-16T13:57:00;2.97;;;0.80;;
51738;SDS011;37815;52.692;6.226;2023-05-16T14:02:02;2.10;;;0.70;;
51738;SDS011;37815;52.692;6.226;2023-05-16T14:07:03;3.97;;;0.73;;
51738;SDS011;37815;52.692;6.226;2023-05-16T14:12:05;3.40;;;1.17;;
51738;SDS011;37815;52.692;6.226;2023-05-16T14:17:06;1.92;;;0.77;;
51738;SDS011;37815;52.692;6.226;2023-05-16T14:22:06;1.63;;;0.75;;
51738;SDS011;37815;52.692;6.226;2023-05-16T14:27:08;2.90;;;1.10;;
51738;SDS011;37815;52.692;6.226;2023-05-16T14:32:09;2.40;;;1.30;;
51738;SDS011;37815;52.692;6.226;2023-05-16T14:37:10;2.35;;;0.93;;
51738;SDS011;37815;52.692;6.226;2023-05-16T14:42:13;2.25;;;0.80;;
51738;SDS011;37815;52.692;6.226;2023-05-16T14:47:14;2.13;;;0.90;;
51738;SDS011;37815;52.692;6.226;2023-05-16T14:52:14;3.90;;;1.38;;
51738;SDS011;37815;52.692;6.226;2023-05-16T14:57:15;4.50;;;1.30;;
51738;SDS011;37815;52.692;6.226;2023-05-16T15:02:16;1.85;;;0.98;;
51738;SDS011;37815;52.692;6.226;2023-05-16T15:07:16;3.03;;;1.02;;
51738;SDS011;37815;52.692;6.226;2023-05-16T15:12:17;3.97;;;1.42;;
51738;SDS011;37815;52.692;6.226;2023-05-16T15:17:17;1.55;;;0.95;;
51738;SDS011;37815;52.692;6.226;2023-05-16T15:22:18;3.15;;;1.00;;
51738;SDS011;37815;52.692;6.226;2023-05-16T15:27:19;2.10;;;1.17;;
51738;SDS011;37815;52.692;6.226;2023-05-16T15:32:21;3.88;;;1.40;;
51738;SDS011;37815;52.692;6.226;2023-05-16T15:37:22;2.83;;;1.17;;
51738;SDS011;37815;52.692;6.226;2023-05-16T15:42:23;3.08;;;1.23;;
51738;SDS011;37815;52.692;6.226;2023-05-16T15:47:23;3.33;;;1.30;;
51738;SDS011;37815;52.692;6.226;2023-05-16T15:52:25;2.15;;;1.20;;
51738;SDS011;37815;52.692;6.226;2023-05-16T15:57:25;2.97;;;1.20;;
51738;SDS011;37815;52.692;6.226;2023-05-16T16:02:26;2.42;;;1.20;;
51738;SDS011;37815;52.692;6.226;2023-05-16T16:07:27;2.88;;;1.08;;
51738;SDS011;37815;52.692;6.226;2023-05-16T16:12:28;3.17;;;1.10;;
51738;SDS011;37815;52.692;6.226;2023-05-16T16:17:29;2.20;;;1.02;;
51738;SDS011;37815;52.692;6.226;2023-05-16T16:22:29;4.75;;;1.10;;
51738;SDS011;37815;52.692;6.226;2023-05-16T16:27:30;1.55;;;0.90;;
51738;SDS011;37815;52.692;6.226;2023-05-16T16:32:30;1.55;;;0.90;;
51738;SDS011;37815;52.692;6.226;2023-05-16T16:37:31;3.40;;;1.00;;
51738;SDS011;37815;52.692;6.226;2023-05-16T16:42:32;2.90;;;1.10;;
51738;SDS011;37815;52.692;6.226;2023-05-16T16:47:33;2.35;;;1.00;;
51738;SDS011;37815;52.692;6.226;2023-05-16T16:52:33;1.50;;;1.00;;
51738;SDS011;37815;52.692;6.226;2023-05-16T16:57:34;1.85;;;1.00;;
51738;SDS011;37815;52.692;6.226;2023-05-16T17:02:35;2.78;;;1.25;;
51738;SDS011;37815;52.692;6.226;2023-05-16T17:07:35;1.55;;;0.82;;
51738;SDS011;37815;52.692;6.226;2023-05-16T17:12:36;2.35;;;0.80;;
51738;SDS011;37815;52.692;6.226;2023-05-16T17:17:43;3.00;;;1.13;;
51738;SDS011;37815;52.692;6.226;2023-05-16T17:22:44;1.88;;;0.98;;
51738;SDS011;37815;52.692;6.226;2023-05-16T17:27:47;1.75;;;0.88;;
51738;SDS011;37815;52.692;6.226;2023-05-16T17:32:47;2.30;;;0.88;;
51738;SDS011;37815;52.692;6.226;2023-05-16T17:37:48;1.90;;;0.82;;
51738;SDS011;37815;52.692;6.226;2023-05-16T17:42:49;2.17;;;0.85;;
51738;SDS011;37815;52.692;6.226;2023-05-16T17:47:50;1.65;;;0.95;;
51738;SDS011;37815;52.692;6.226;2023-05-16T17:52:51;2.30;;;1.00;;
51738;SDS011;37815;52.692;6.226;2023-05-16T17:57:51;1.23;;;0.68;;
51738;SDS011;37815;52.692;6.226;2023-05-16T18:02:52;1.42;;;0.80;;
51738;SDS011;37815;52.692;6.226;2023-05-16T18:07:54;1.25;;;0.80;;
51738;SDS011;37815;52.692;6.226;2023-05-16T18:12:55;1.70;;;0.80;;
51738;SDS011;37815;52.692;6.226;2023-05-16T18:17:56;1.83;;;1.17;;
51738;SDS011;37815;52.692;6.226;2023-05-16T18:22:57;2.40;;;0.85;;
51738;SDS011;37815;52.692;6.226;2023-05-16T18:27:58;1.85;;;0.80;;
51738;SDS011;37815;52.692;6.226;2023-05-16T18:32:58;2.22;;;0.90;;
51738;SDS011;37815;52.692;6.226;2023-05-16T18:37:59;1.58;;;1.15;;
51738;SDS011;37815;52.692;6.226;2023-05-16T18:43:00;2.28;;;0.90;;
51738;SDS011;37815;52.692;6.226;2023-05-16T18:48:00;4.03;;;0.90;;
51738;SDS011;37815;52.692;6.226;2023-05-16T18:53:01;6.20;;;2.20;;
51738;SDS011;37815;52.692;6.226;2023-05-16T18:58:02;2.30;;;0.80;;
51738;SDS011;37815;52.692;6.226;2023-05-16T19:03:02;2.17;;;1.10;;
51738;SDS011;37815;52.692;6.226;2023-05-16T19:08:03;3.28;;;0.95;;
51738;SDS011;37815;52.692;6.226;2023-05-16T19:13:05;2.40;;;0.98;;
51738;SDS011;37815;52.692;6.226;2023-05-16T19:18:06;1.85;;;0.93;;
51738;SDS011;37815;52.692;6.226;2023-05-16T19:23:07;2.17;;;0.88;;
51738;SDS011;37815;52.692;6.226;2023-05-16T19:28:08;2.42;;;0.95;;
51738;SDS011;37815;52.692;6.226;2023-05-16T19:33:08;3.08;;;1.13;;
51738;SDS011;37815;52.692;6.226;2023-05-16T19:38:09;1.83;;;0.98;;
51738;SDS011;37815;52.692;6.226;2023-05-16T19:43:10;2.38;;;1.00;;
51738;SDS011;37815;52.692;6.226;2023-05-16T19:48:10;3.35;;;1.10;;
51738;SDS011;37815;52.692;6.226;2023-05-16T19:53:11;3.58;;;1.30;;
51738;SDS011;37815;52.692;6.226;2023-05-16T19:58:11;5.25;;;1.30;;
51738;SDS011;37815;52.692;6.226;2023-05-16T20:03:15;2.45;;;1.27;;
51738;SDS011;37815;52.692;6.226;2023-05-16T20:08:15;4.13;;;1.02;;
51738;SDS011;37815;52.692;6.226;2023-05-16T20:13:16;2.05;;;0.85;;
51738;SDS011;37815;52.692;6.226;2023-05-16T20:18:19;2.40;;;0.93;;
51738;SDS011;37815;52.692;6.226;2023-05-16T20:23:19;2.38;;;1.15;;
51738;SDS011;37815;52.692;6.226;2023-05-16T20:28:20;2.33;;;1.13;;
51738;SDS011;37815;52.692;6.226;2023-05-16T20:33:21;3.58;;;1.40;;
51738;SDS011;37815;52.692;6.226;2023-05-16T20:38:21;2.97;;;1.25;;
51738;SDS011;37815;52.692;6.226;2023-05-16T20:43:22;3.40;;;1.80;;
51738;SDS011;37815;52.692;6.226;2023-05-16T20:48:22;3.35;;;1.50;;
51738;SDS011;37815;52.692;6.226;2023-05-16T20:53:23;4.30;;;1.13;;
51738;SDS011;37815;52.692;6.226;2023-05-16T20:58:24;3.20;;;1.40;;
51738;SDS011;37815;52.692;6.226;2023-05-16T21:03:41;4.50;;;2.10;;
51738;SDS011;37815;52.692;6.226;2023-05-16T21:08:42;4.57;;;1.50;;
51738;SDS011;37815;52.692;6.226;2023-05-16T21:13:42;3.15;;;1.42;;
51738;SDS011;37815;52.692;6.226;2023-05-16T21:18:43;2.30;;;1.13;;
51738;SDS011;37815;52.692;6.226;2023-05-16T21:23:43;2.88;;;1.58;;
51738;SDS011;37815;52.692;6.226;2023-05-16T21:28:44;4.90;;;1.60;;
51738;SDS011;37815;52.692;6.226;2023-05-16T21:33:45;4.30;;;1.75;;
51738;SDS011;37815;52.692;6.226;2023-05-16T21:38:45;3.60;;;1.98;;
51738;SDS011;37815;52.692;6.226;2023-05-16T21:43:46;3.55;;;1.45;;
51738;SDS011;37815;52.692;6.226;2023-05-16T21:48:47;3.67;;;1.80;;
51738;SDS011;37815;52.692;6.226;2023-05-16T21:53:47;3.28;;;1.55;;
51738;SDS011;37815;52.692;6.226;2023-05-16T21:58:48;3.53;;;1.60;;
51738;SDS011;37815;52.692;6.226;2023-05-16T22:03:48;3.90;;;1.55;;
51738;SDS011;37815;52.692;6.226;2023-05-16T22:08:50;5.20;;;1.70;;
51738;SDS011;37815;52.692;6.226;2023-05-16T22:13:50;4.55;;;1.75;;
51738;SDS011;37815;52.692;6.226;2023-05-16T22:18:51;6.60;;;1.70;;
51738;SDS011;37815;52.692;6.226;2023-05-16T22:23:51;4.63;;;1.60;;
51738;SDS011;37815;52.692;6.226;2023-05-16T22:28:52;6.18;;;1.90;;
51738;SDS011;37815;52.692;6.226;2023-05-16T22:33:53;3.72;;;1.77;;
51738;SDS011;37815;52.692;6.226;2023-05-16T22:38:53;2.40;;;1.58;;
51738;SDS011;37815;52.692;6.226;2023-05-16T22:43:54;4.85;;;1.98;;
51738;SDS011;37815;52.692;6.226;2023-05-16T22:48:55;3.63;;;1.45;;
51738;SDS011;37815;52.692;6.226;2023-05-16T22:53:55;2.95;;;1.58;;
51738;SDS011;37815;52.692;6.226;2023-05-16T22:58:56;6.28;;;1.80;;
51738;SDS011;37815;52.692;6.226;2023-05-16T23:03:56;3.75;;;1.60;;
51738;SDS011;37815;52.692;6.226;2023-05-16T23:08:57;5.25;;;1.75;;
51738;SDS011;37815;52.692;6.226;2023-05-16T23:13:59;3.67;;;1.75;;
51738;SDS011;37815;52.692;6.226;2023-05-16T23:19:00;5.75;;;1.85;;
51738;SDS011;37815;52.692;6.226;2023-05-16T23:24:00;4.38;;;1.80;;
51738;SDS011;37815;52.692;6.226;2023-05-16T23:29:01;3.63;;;1.83;;
51738;SDS011;37815;52.692;6.226;2023-05-16T23:34:01;3.22;;;2.08;;
51738;SDS011;37815;52.692;6.226;2023-05-16T23:39:02;8.25;;;1.92;;
51738;SDS011;37815;52.692;6.226;2023-05-16T23:44:03;4.93;;;1.52;;
51738;SDS011;37815;52.692;6.226;2023-05-16T23:49:04;6.25;;;1.92;;
51738;SDS011;37815;52.692;6.226;2023-05-16T23:54:04;3.92;;;1.95;;
51738;SDS011;37815;52.692;6.226;2023-05-16T23:59:05;4.50;;;1.60;;
